Time;durP1;ratioP1;P1;durP2;ratioP2;P2;SDS_P1;SDS_P2;PMS_P1;PMS_P2;Temp;Humidity;BMP_temperature;BMP_pressure;BME280_temperature;BME280_humidity;BME280_pressure;Samples;Min_cycle;Max_cycle;Signal;HPM_P1;HPM_P2
2022/04/11 00:00:15;;;;;;;6.43;2.20;;;4.30;99.90;;;;;;5031435;28;20083;-82
2022/04/11 00:02:40;;;;;;;5.70;1.98;;;4.30;99.90;;;;;;5032048;28;20063;-82
2022/04/11 00:05:06;;;;;;;5.93;2.10;;;4.30;99.90;;;;;;5031517;28;20041;-82
2022/04/11 00:07:31;;;;;;;4.88;1.77;;;4.30;99.90;;;;;;5015173;28;20117;-82
2022/04/11 00:09:57;;;;;;;4.30;1.63;;;4.30;99.90;;;;;;5015009;28;20128;-82
2022/04/11 00:12:23;;;;;;;5.10;2.00;;;4.20;99.90;;;;;;5031552;28;20038;-82
2022/04/11 00:14:48;;;;;;;6.65;1.80;;;4.20;99.90;;;;;;5031615;28;20111;-82
2022/04/11 00:17:14;;;;;;;5.82;1.83;;;4.20;99.90;;;;;;5015107;28;20052;-82
2022/04/11 00:19:39;;;;;;;6.43;2.10;;;4.20;99.90;;;;;;5031116;28;20068;-81
2022/04/11 00:22:05;;;;;;;4.70;1.80;;;4.20;99.90;;;;;;5031206;28;20041;-82
2022/04/11 00:24:30;;;;;;;5.10;1.80;;;4.20;99.90;;;;;;5031442;28;20045;-82
2022/04/11 00:26:56;;;;;;;7.32;2.03;;;4.10;99.90;;;;;;5031450;28;20171;-82
2022/04/11 00:29:21;;;;;;;7.00;2.17;;;4.10;99.90;;;;;;5027123;28;20099;-82
2022/04/11 00:31:47;;;;;;;6.47;1.85;;;4.10;99.90;;;;;;5030322;28;20053;-82
2022/04/11 00:34:13;;;;;;;6.68;2.33;;;4.00;99.90;;;;;;5031186;28;20045;-82
2022/04/11 00:36:38;;;;;;;6.10;2.25;;;4.00;99.90;;;;;;5030772;28;20033;-82
2022/04/11 00:39:04;;;;;;;8.27;2.97;;;4.00;99.90;;;;;;5031269;28;20411;-82
2022/04/11 00:41:29;;;;;;;5.97;2.00;;;3.90;99.90;;;;;;5014388;28;20498;-82
2022/04/11 00:43:55;;;;;;;8.02;2.30;;;3.90;99.90;;;;;;5031213;28;20041;-81
2022/04/11 00:46:20;;;;;;;6.00;1.85;;;3.80;99.90;;;;;;5014683;28;20095;-82
2022/04/11 00:48:46;;;;;;;6.85;2.30;;;3.80;99.90;;;;;;5030864;28;20045;-82
2022/04/11 00:51:17;;;;;;;6.30;2.30;;;3.80;99.90;;;;;;5014135;28;20122;-82
2022/04/11 00:53:45;;;;;;;5.68;2.05;;;3.80;99.90;;;;;;5030858;28;20084;-82
2022/04/11 00:56:13;;;;;;;7.57;2.30;;;3.80;99.90;;;;;;5030874;28;20530;-82
2022/04/11 00:58:39;;;;;;;4.88;1.70;;;3.80;99.90;;;;;;5030651;28;20114;-82
2022/04/11 01:01:05;;;;;;;6.47;1.95;;;3.70;99.90;;;;;;5030603;28;20045;-82
2022/04/11 01:03:32;;;;;;;5.75;2.05;;;3.70;99.90;;;;;;5030574;28;20132;-82
2022/04/11 01:05:58;;;;;;;8.15;1.73;;;3.70;99.90;;;;;;5030487;28;20072;-82
2022/04/11 01:08:24;;;;;;;5.13;1.80;;;3.60;99.90;;;;;;5030800;28;20044;-82
2022/04/11 01:10:51;;;;;;;4.35;1.55;;;3.60;99.90;;;;;;5030315;28;20128;-82
2022/04/11 01:13:17;;;;;;;5.80;1.88;;;3.60;99.90;;;;;;5014188;28;20044;-82
2022/04/11 01:16:00;;;;;;;4.32;1.80;;;3.60;99.90;;;;;;5030730;28;20037;-82
2022/04/11 01:18:26;;;;;;;5.93;1.60;;;3.60;99.90;;;;;;5014109;28;20063;-82
2022/04/11 01:20:52;;;;;;;8.02;2.08;;;3.50;99.90;;;;;;5030473;28;20041;-82
2022/04/11 01:23:18;;;;;;;7.45;2.22;;;3.60;99.90;;;;;;5030471;28;20120;-82
2022/04/11 01:25:52;;;;;;;5.70;1.88;;;3.60;99.90;;;;;;5033390;28;20525;-81
2022/04/11 01:28:19;;;;;;;5.97;1.70;;;3.50;99.90;;;;;;5031733;28;20049;-81
2022/04/11 01:30:45;;;;;;;7.07;2.05;;;3.50;99.90;;;;;;5014508;28;20073;-81
2022/04/11 01:33:26;;;;;;;6.63;1.95;;;3.50;99.90;;;;;;5031103;28;20112;-81
2022/04/11 01:35:51;;;;;;;6.78;2.00;;;3.50;99.90;;;;;;5030710;28;20042;-82
2022/04/11 01:38:17;;;;;;;7.13;2.67;;;3.40;99.90;;;;;;5014000;28;20124;-81
2022/04/11 01:40:56;;;;;;;8.80;2.72;;;3.40;99.90;;;;;;5030062;28;20033;-82
2022/04/11 01:43:23;;;;;;;9.38;2.85;;;3.40;99.90;;;;;;5030066;28;20387;-82
2022/04/11 01:45:49;;;;;;;7.53;2.60;;;3.40;99.90;;;;;;5030312;28;20068;-81
2022/04/11 01:48:16;;;;;;;7.13;2.97;;;3.40;99.90;;;;;;5030517;28;20041;-82
2022/04/11 01:50:42;;;;;;;9.80;3.10;;;3.40;99.90;;;;;;5013361;28;20044;-82
2022/04/11 01:53:12;;;;;;;8.43;3.28;;;3.40;99.90;;;;;;5029963;28;20033;-82
2022/04/11 01:55:38;;;;;;;8.57;3.40;;;3.40;99.90;;;;;;5029924;28;20041;-82
2022/04/11 01:58:05;;;;;;;8.40;3.15;;;3.40;99.90;;;;;;5030223;28;20121;-82
2022/04/11 02:00:31;;;;;;;7.68;3.08;;;3.40;99.90;;;;;;5013188;28;20128;-82
2022/04/11 02:02:58;;;;;;;8.05;3.22;;;3.40;99.90;;;;;;5030008;28;20487;-82
2022/04/11 02:05:24;;;;;;;7.78;2.80;;;3.40;99.90;;;;;;5013548;28;20517;-82
2022/04/11 02:07:50;;;;;;;10.25;2.97;;;3.40;99.90;;;;;;5030186;28;20053;-82
2022/04/11 02:10:16;;;;;;;8.82;3.05;;;3.40;99.90;;;;;;5013151;28;20040;-84
2022/04/11 02:12:42;;;;;;;9.15;3.25;;;3.40;99.90;;;;;;5029930;28;20073;-83
2022/04/11 02:15:08;;;;;;;7.82;3.28;;;3.30;99.90;;;;;;5013587;28;20045;-82
2022/04/11 02:17:34;;;;;;;7.82;2.85;;;3.40;99.90;;;;;;5032676;28;20120;-83
2022/04/11 02:19:59;;;;;;;9.07;2.80;;;3.40;99.90;;;;;;5033540;28;20124;-83
2022/04/11 02:22:25;;;;;;;7.50;3.03;;;3.40;99.90;;;;;;5033591;28;20402;-83
2022/04/11 02:24:50;;;;;;;11.32;3.45;;;3.30;99.90;;;;;;5033529;28;20406;-83
2022/04/11 02:27:16;;;;;;;8.25;2.97;;;3.30;99.90;;;;;;5033675;28;20130;-83
2022/04/11 02:29:42;;;;;;;7.40;2.53;;;3.30;99.90;;;;;;5033028;28;20048;-83
2022/04/11 02:32:08;;;;;;;8.20;3.83;;;3.30;99.90;;;;;;5016909;28;20045;-83
2022/04/11 02:34:34;;;;;;;6.78;2.50;;;3.30;99.90;;;;;;5033405;28;20120;-83
2022/04/11 02:36:59;;;;;;;8.00;3.75;;;3.20;99.90;;;;;;5033680;28;20041;-82
2022/04/11 02:39:25;;;;;;;7.50;2.80;;;3.20;99.90;;;;;;5016435;28;20523;-82
2022/04/11 02:41:50;;;;;;;7.03;2.92;;;3.20;99.90;;;;;;5016662;28;20041;-83
2022/04/11 02:44:16;;;;;;;7.97;2.78;;;3.30;99.90;;;;;;5033251;28;20034;-83
2022/04/11 02:46:42;;;;;;;5.88;2.08;;;3.30;99.90;;;;;;5016606;28;20041;-83
2022/04/11 02:49:08;;;;;;;6.55;2.50;;;3.30;99.90;;;;;;5033427;28;20041;-83
2022/04/11 02:51:34;;;;;;;7.72;2.45;;;3.20;99.90;;;;;;5032856;28;20403;-83
2022/04/11 02:54:02;;;;;;;7.93;2.72;;;3.20;99.90;;;;;;5033165;28;20554;-83
2022/04/11 02:56:27;;;;;;;6.95;2.60;;;3.20;99.90;;;;;;5016581;28;20044;-83
2022/04/11 02:58:53;;;;;;;7.95;3.13;;;3.20;99.90;;;;;;5016286;28;20045;-83
2022/04/11 03:01:18;;;;;;;8.32;2.40;;;3.20;99.90;;;;;;5032666;28;20128;-83
2022/04/11 03:03:44;;;;;;;6.32;2.20;;;3.20;99.90;;;;;;5032866;28;20443;-83
2022/04/11 03:06:10;;;;;;;5.68;2.00;;;3.20;99.90;;;;;;5016466;28;20045;-83
2022/04/11 03:08:35;;;;;;;5.93;2.28;;;3.10;99.90;;;;;;5032673;28;20041;-82
2022/04/11 03:11:01;;;;;;;6.28;2.33;;;3.10;99.90;;;;;;5016341;28;20047;-82
2022/04/11 03:13:27;;;;;;;6.20;2.28;;;3.00;99.90;;;;;;5032554;28;20045;-83
2022/04/11 03:15:52;;;;;;;6.43;2.10;;;3.00;99.90;;;;;;5016276;28;20033;-83
2022/04/11 03:18:18;;;;;;;7.03;2.30;;;3.00;99.90;;;;;;5032694;28;20033;-83
2022/04/11 03:20:44;;;;;;;6.07;2.30;;;2.80;99.90;;;;;;5015894;28;20641;-83
2022/04/11 03:23:10;;;;;;;8.38;2.63;;;2.80;99.90;;;;;;5032356;28;20037;-83
2022/04/11 03:25:36;;;;;;;7.60;2.50;;;2.80;99.90;;;;;;5032468;28;20063;-83
2022/04/11 03:28:02;;;;;;;6.28;2.15;;;2.80;99.90;;;;;;5032449;28;20414;-83
2022/04/11 03:30:28;;;;;;;6.50;2.55;;;2.70;99.90;;;;;;5031888;28;20582;-83
2022/04/11 03:32:53;;;;;;;8.98;2.97;;;2.70;99.90;;;;;;5032579;28;20051;-83
2022/04/11 03:35:19;;;;;;;7.40;3.03;;;2.80;99.90;;;;;;5032370;28;20041;-83
2022/04/11 03:37:44;;;;;;;9.48;3.35;;;2.80;99.90;;;;;;5032167;28;20038;-83
2022/04/11 03:40:10;;;;;;;8.25;3.15;;;2.80;99.90;;;;;;5031926;28;20046;-83
2022/04/11 03:42:36;;;;;;;6.38;2.20;;;2.80;99.90;;;;;;5032077;28;20083;-83
2022/04/11 03:45:02;;;;;;;6.13;2.45;;;2.80;99.90;;;;;;5032266;28;20029;-83
2022/04/11 03:47:28;;;;;;;8.82;3.22;;;2.80;99.90;;;;;;5032060;28;20502;-83
2022/04/11 03:49:53;;;;;;;6.95;2.60;;;2.80;99.90;;;;;;5031793;28;20052;-83
2022/04/11 03:52:19;;;;;;;7.78;3.00;;;2.80;99.90;;;;;;5031544;28;20041;-83
2022/04/11 03:54:45;;;;;;;6.55;2.80;;;2.80;99.90;;;;;;5032075;28;20041;-82
2022/04/11 03:57:10;;;;;;;6.82;2.75;;;2.90;99.90;;;;;;5031991;28;20094;-83
2022/04/11 03:59:38;;;;;;;8.35;2.88;;;2.80;99.90;;;;;;5031480;28;20041;-82
2022/04/11 04:02:04;;;;;;;6.75;2.53;;;2.90;99.90;;;;;;5015339;28;20402;-83
2022/04/11 04:04:29;;;;;;;8.75;3.13;;;2.90;99.90;;;;;;5031743;28;20103;-83
2022/04/11 04:06:55;;;;;;;7.00;2.60;;;2.90;99.90;;;;;;5015241;28;20057;-83
2022/04/11 04:09:20;;;;;;;9.15;2.90;;;2.90;99.90;;;;;;5031719;28;20048;-83
2022/04/11 04:11:46;;;;;;;7.60;2.83;;;3.00;99.90;;;;;;5031358;28;20047;-83
2022/04/11 04:14:11;;;;;;;6.63;2.58;;;3.00;99.90;;;;;;5031462;28;20041;-82
2022/04/11 04:16:37;;;;;;;6.85;2.38;;;3.00;99.90;;;;;;5031924;28;20099;-82
2022/04/11 04:19:03;;;;;;;6.72;2.20;;;3.00;99.90;;;;;;5031608;28;20091;-82
2022/04/11 04:21:28;;;;;;;6.97;2.50;;;2.90;99.90;;;;;;5014530;28;20033;-82
2022/04/11 04:23:54;;;;;;;9.10;3.38;;;2.90;99.90;;;;;;5031491;28;20037;-83
2022/04/11 04:26:20;;;;;;;6.55;2.28;;;2.90;99.90;;;;;;5031633;28;20438;-83
2022/04/11 04:28:45;;;;;;;7.85;2.63;;;2.90;99.90;;;;;;5031374;28;20498;-83
2022/04/11 04:31:11;;;;;;;7.47;2.60;;;2.90;99.90;;;;;;5014489;28;20510;-83
2022/04/11 04:33:36;;;;;;;7.35;2.70;;;2.90;99.90;;;;;;5031130;28;20057;-83
2022/04/11 04:36:02;;;;;;;6.78;2.75;;;2.90;99.90;;;;;;5031056;28;20049;-83
2022/04/11 04:38:27;;;;;;;6.53;2.80;;;2.90;99.90;;;;;;5030775;28;20037;-80
2022/04/11 04:40:53;;;;;;;6.88;2.65;;;3.00;99.90;;;;;;5014462;28;20034;-80
2022/04/11 04:43:18;;;;;;;8.90;3.15;;;3.00;99.90;;;;;;5030877;28;20048;-80
2022/04/11 04:45:45;;;;;;;8.07;2.92;;;3.00;99.90;;;;;;5031233;28;20049;-80
2022/04/11 04:48:11;;;;;;;9.25;3.03;;;3.10;99.90;;;;;;5030943;28;20047;-81
2022/04/11 04:50:36;;;;;;;8.35;3.72;;;3.10;99.90;;;;;;5030504;28;20132;-81
2022/04/11 04:53:02;;;;;;;7.35;3.25;;;3.10;99.90;;;;;;5030692;28;20033;-80
2022/04/11 04:55:27;;;;;;;10.63;3.28;;;3.10;99.90;;;;;;5031168;28;20041;-80
2022/04/11 04:57:53;;;;;;;9.55;3.55;;;3.10;99.90;;;;;;5030893;28;20434;-80
2022/04/11 05:00:19;;;;;;;10.20;3.63;;;3.20;99.90;;;;;;5030377;28;20045;-80
2022/04/11 05:02:44;;;;;;;9.90;4.30;;;3.20;99.90;;;;;;5030716;28;20113;-80
2022/04/11 05:05:11;;;;;;;9.38;4.65;;;3.30;99.90;;;;;;5014383;28;20128;-80
2022/04/11 05:07:37;;;;;;;12.02;4.75;;;3.30;99.90;;;;;;5030675;28;20129;-80
2022/04/11 05:10:04;;;;;;;10.52;4.78;;;3.30;99.90;;;;;;5014167;28;20124;-80
2022/04/11 05:12:38;;;;;;;10.50;5.03;;;3.40;99.90;;;;;;5030600;28;20120;-80
2022/04/11 05:15:04;;;;;;;10.57;4.78;;;3.40;99.90;;;;;;5030593;28;20440;-80
2022/04/11 05:17:30;;;;;;;10.30;4.63;;;3.40;99.90;;;;;;5012512;28;20068;-80
2022/04/11 05:19:55;;;;;;;12.25;5.45;;;3.40;99.90;;;;;;5030219;28;20041;-80
2022/04/11 05:22:21;;;;;;;11.13;4.60;;;3.50;99.90;;;;;;5013985;28;20041;-83
2022/04/11 05:24:46;;;;;;;10.52;4.55;;;3.50;99.90;;;;;;5032022;28;20064;-82
2022/04/11 05:27:12;;;;;;;9.65;4.43;;;3.50;99.90;;;;;;5030467;28;20545;-82
2022/04/11 05:29:38;;;;;;;8.32;3.95;;;3.50;99.90;;;;;;5013823;28;20094;-83
2022/04/11 05:32:04;;;;;;;8.63;4.05;;;3.60;99.90;;;;;;5030594;28;20125;-83
2022/04/11 05:34:30;;;;;;;8.60;3.90;;;3.60;99.90;;;;;;5030340;28;20507;-83
2022/04/11 05:36:55;;;;;;;9.95;3.75;;;3.60;99.90;;;;;;5030454;28;20045;-83
2022/04/11 05:39:21;;;;;;;11.60;3.95;;;3.70;99.90;;;;;;5013887;28;20041;-83
2022/04/11 05:41:47;;;;;;;9.32;3.92;;;3.70;99.90;;;;;;5030126;28;20087;-83
2022/04/11 05:44:12;;;;;;;9.82;4.45;;;3.80;99.90;;;;;;5013737;28;20034;-83
2022/04/11 05:46:38;;;;;;;9.73;3.60;;;3.80;99.90;;;;;;5030350;28;20084;-82
2022/04/11 05:49:03;;;;;;;11.80;3.78;;;3.80;99.90;;;;;;5031363;28;20118;-82
2022/04/11 05:51:29;;;;;;;12.02;4.05;;;3.80;99.90;;;;;;5032804;28;20048;-81
2022/04/11 05:53:54;;;;;;;10.13;4.35;;;3.90;99.90;;;;;;5017975;28;20051;-80
2022/04/11 05:56:20;;;;;;;9.32;4.40;;;3.90;99.90;;;;;;5034553;28;20059;-81
2022/04/11 05:58:45;;;;;;;10.25;3.72;;;3.90;99.90;;;;;;5034254;28;20129;-81
2022/04/11 06:01:11;;;;;;;8.30;3.97;;;3.90;99.90;;;;;;5034134;28;20514;-81
2022/04/11 06:03:37;;;;;;;7.82;3.70;;;4.00;99.90;;;;;;5033848;28;20502;-80
2022/04/11 06:06:03;;;;;;;10.30;3.80;;;4.00;99.90;;;;;;5034157;28;20044;-81
2022/04/11 06:08:29;;;;;;;9.10;3.88;;;4.10;99.90;;;;;;5034015;28;20124;-81
2022/04/11 06:10:54;;;;;;;10.38;3.53;;;4.10;99.90;;;;;;5034034;28;20077;-81
2022/04/11 06:13:20;;;;;;;12.35;3.78;;;4.10;99.90;;;;;;5034043;28;20077;-81
2022/04/11 06:15:45;;;;;;;10.60;3.95;;;4.20;99.90;;;;;;5034088;28;20052;-81
2022/04/11 06:18:11;;;;;;;9.40;3.78;;;4.20;99.90;;;;;;5017576;28;20029;-80
2022/04/11 06:20:37;;;;;;;9.20;3.78;;;4.20;99.90;;;;;;5033513;28;20037;-81
2022/04/11 06:23:03;;;;;;;8.02;4.28;;;4.30;99.90;;;;;;5017126;28;20037;-81
2022/04/11 06:25:29;;;;;;;9.90;3.83;;;4.30;99.90;;;;;;5033700;28;20116;-81
2022/04/11 06:27:54;;;;;;;9.40;4.18;;;4.30;99.90;;;;;;5038547;28;20053;-80
2022/04/11 06:30:20;;;;;;;10.77;4.15;;;4.40;99.90;;;;;;5055035;28;20441;-81
2022/04/11 06:32:45;;;;;;;8.90;4.20;;;4.40;99.90;;;;;;5054718;28;20439;-81
2022/04/11 06:35:11;;;;;;;9.07;4.15;;;4.50;99.90;;;;;;5054431;28;20633;-81
2022/04/11 06:37:36;;;;;;;26.20;4.85;;;4.60;99.90;;;;;;5054281;28;20073;-81
2022/04/11 06:40:03;;;;;;;8.90;4.35;;;4.60;99.90;;;;;;5053121;28;20055;-81
2022/04/11 06:42:29;;;;;;;13.95;5.43;;;4.70;99.90;;;;;;5053275;28;20106;-81
2022/04/11 06:44:54;;;;;;;11.50;4.97;;;4.80;99.90;;;;;;5053245;28;20068;-82
2022/04/11 06:47:21;;;;;;;9.98;4.70;;;4.90;99.90;;;;;;5035613;28;20098;-81
2022/04/11 06:49:47;;;;;;;10.48;4.75;;;5.00;99.90;;;;;;5036515;28;20721;-82
2022/04/11 06:52:13;;;;;;;10.95;4.38;;;5.10;99.90;;;;;;5036068;28;20041;-82
2022/04/11 06:54:39;;;;;;;9.85;4.68;;;5.20;99.90;;;;;;5036736;28;20398;-82
2022/04/11 06:57:04;;;;;;;9.45;5.13;;;5.30;99.90;;;;;;5036289;28;20604;-82
2022/04/11 06:59:30;;;;;;;11.82;4.43;;;5.30;99.90;;;;;;5033450;28;20041;-83
2022/04/11 07:01:56;;;;;;;10.55;4.60;;;5.40;99.90;;;;;;5031459;28;20499;-83
2022/04/11 07:04:21;;;;;;;10.75;4.18;;;5.50;99.90;;;;;;5032136;28;20037;-82
2022/04/11 07:06:47;;;;;;;10.68;4.65;;;5.50;99.90;;;;;;5032320;28;20120;-83
2022/04/11 07:09:14;;;;;;;10.77;4.78;;;5.60;99.90;;;;;;5032491;28;20044;-82
2022/04/11 07:11:40;;;;;;;9.40;4.32;;;5.70;99.90;;;;;;5015454;28;20045;-83
2022/04/11 07:14:06;;;;;;;11.02;4.55;;;5.70;99.90;;;;;;5015551;28;20095;-82
2022/04/11 07:16:32;;;;;;;10.68;4.30;;;5.80;99.90;;;;;;5031718;28;20049;-82
2022/04/11 07:18:58;;;;;;;10.27;4.40;;;5.90;99.90;;;;;;5031990;28;20084;-82
2022/04/11 07:21:23;;;;;;;9.80;4.55;;;5.90;99.90;;;;;;5031719;28;20410;-82
2022/04/11 07:23:49;;;;;;;9.70;3.95;;;5.90;99.90;;;;;;5032011;28;20037;-82
2022/04/11 07:26:15;;;;;;;9.85;4.43;;;6.00;99.90;;;;;;5032008;28;20034;-82
2022/04/11 07:28:41;;;;;;;10.63;4.20;;;6.00;99.90;;;;;;5032580;28;20049;-82
2022/04/11 07:31:06;;;;;;;10.50;4.45;;;6.10;99.90;;;;;;5032024;28;20049;-82
2022/04/11 07:33:32;;;;;;;8.85;4.20;;;6.20;99.90;;;;;;5032134;28;20095;-82
2022/04/11 07:35:58;;;;;;;9.30;4.40;;;6.20;99.90;;;;;;5032170;28;20124;-82
2022/04/11 07:38:23;;;;;;;11.38;4.72;;;6.30;99.90;;;;;;5015687;28;20527;-83
2022/04/11 07:40:49;;;;;;;12.27;4.90;;;6.40;99.90;;;;;;5015318;28;20071;-83
2022/04/11 07:43:15;;;;;;;10.77;4.80;;;6.50;99.90;;;;;;5032137;28;20410;-83
2022/04/11 07:45:41;;;;;;;8.80;4.10;;;6.50;99.90;;;;;;5031507;28;20037;-83
2022/04/11 07:48:07;;;;;;;9.13;4.32;;;6.60;99.90;;;;;;5033302;28;20046;-82
2022/04/11 07:50:33;;;;;;;11.20;4.78;;;6.70;99.90;;;;;;5015101;28;20045;-82
2022/04/11 07:52:58;;;;;;;13.32;5.05;;;6.80;99.90;;;;;;5031909;28;20056;-82
2022/04/11 07:55:24;;;;;;;11.38;4.57;;;6.80;99.90;;;;;;5031974;28;20473;-83
2022/04/11 07:57:51;;;;;;;10.50;5.07;;;6.90;99.90;;;;;;5031839;28;20510;-82
2022/04/11 08:00:17;;;;;;;10.65;5.60;;;7.00;99.90;;;;;;5031350;28;20041;-82
2022/04/11 08:02:42;;;;;;;13.02;5.75;;;7.00;99.90;;;;;;5031572;28;20057;-82
2022/04/11 08:05:08;;;;;;;13.88;5.90;;;7.10;99.90;;;;;;5031280;28;20038;-82
2022/04/11 08:07:34;;;;;;;11.60;5.13;;;7.20;99.90;;;;;;5031316;28;20042;-82
2022/04/11 08:10:01;;;;;;;11.38;5.40;;;7.30;99.90;;;;;;5031210;28;20441;-83
2022/04/11 08:12:26;;;;;;;11.43;5.97;;;7.40;99.90;;;;;;5031757;28;20059;-83
2022/04/11 08:14:52;;;;;;;11.90;5.40;;;7.50;99.90;;;;;;5030231;28;20499;-82
2022/04/11 08:17:17;;;;;;;11.85;5.50;;;7.60;99.90;;;;;;5031467;28;20037;-83
2022/04/11 08:19:43;;;;;;;11.13;5.25;;;7.60;99.90;;;;;;5031122;28;20048;-83
2022/04/11 08:22:08;;;;;;;10.38;5.15;;;7.70;99.90;;;;;;5031493;28;20491;-83
2022/04/11 08:24:34;;;;;;;12.65;5.80;;;7.80;99.90;;;;;;5031281;28;20499;-83
2022/04/11 08:27:00;;;;;;;11.52;5.30;;;7.90;99.90;;;;;;5015097;28;20513;-83
2022/04/11 08:29:25;;;;;;;12.50;5.40;;;8.00;99.90;;;;;;5030934;28;20486;-83
2022/04/11 08:31:51;;;;;;;13.57;5.72;;;8.20;99.90;;;;;;5014637;28;20521;-83
2022/04/11 08:34:17;;;;;;;13.30;6.38;;;8.30;99.90;;;;;;5031087;28;20037;-83
2022/04/11 08:36:49;;;;;;;12.48;6.07;;;8.40;99.90;;;;;;5089055;28;20458;-81
2022/04/11 08:39:16;;;;;;;10.88;5.57;;;8.50;99.90;;;;;;5087788;28;20498;-81
2022/04/11 08:41:42;;;;;;;13.35;6.18;;;8.60;99.90;;;;;;5087440;28;20045;-82
2022/04/11 08:44:07;;;;;;;12.98;5.15;;;8.80;99.90;;;;;;5087483;28;20669;-83
2022/04/11 08:46:34;;;;;;;11.50;5.60;;;8.90;99.90;;;;;;5086606;28;20036;-83
2022/04/11 08:49:02;;;;;;;11.43;5.90;;;9.00;99.90;;;;;;5087201;28;20037;-83
2022/04/11 08:51:30;;;;;;;10.05;5.55;;;9.10;99.90;;;;;;5070643;28;20390;-83
2022/04/11 08:53:57;;;;;;;10.55;5.80;;;9.30;99.90;;;;;;5087505;28;20090;-83
2022/04/11 08:56:23;;;;;;;11.32;5.82;;;9.40;99.90;;;;;;5087281;28;20078;-83
2022/04/11 08:58:48;;;;;;;12.02;6.30;;;9.60;99.90;;;;;;5070941;28;20068;-83
2022/04/11 09:01:14;;;;;;;10.80;5.80;;;9.60;99.90;;;;;;5080662;28;20036;-83
2022/04/11 09:03:42;;;;;;;10.98;5.20;;;9.80;99.90;;;;;;5071215;28;20041;-83
2022/04/11 09:06:09;;;;;;;10.63;5.95;;;9.90;99.90;;;;;;5066520;28;20044;-83
2022/04/11 09:08:51;;;;;;;9.88;5.05;;;10.00;99.90;;;;;;5067124;28;20052;-83
2022/04/11 09:11:35;;;;;;;13.18;6.10;;;10.20;99.70;;;;;;5050025;28;20037;-82
2022/04/11 09:14:09;;;;;;;13.02;7.28;;;10.30;99.30;;;;;;5066846;28;20037;-82
2022/04/11 09:16:48;;;;;;;11.77;5.53;;;10.40;99.60;;;;;;5066860;28;20045;-83
2022/04/11 09:19:22;;;;;;;12.98;6.05;;;10.50;98.70;;;;;;5066804;28;20044;-82
2022/04/11 09:21:48;;;;;;;12.05;5.13;;;10.60;97.10;;;;;;5066657;28;20033;-83
2022/04/11 09:24:16;;;;;;;11.05;4.85;;;10.80;97.10;;;;;;5049942;28;20033;-82
2022/04/11 09:26:42;;;;;;;9.48;4.15;;;11.00;96.50;;;;;;5050301;28;20051;-82
2022/04/11 09:29:07;;;;;;;9.07;3.80;;;11.10;95.50;;;;;;5066516;28;20076;-82
2022/04/11 09:31:33;;;;;;;8.38;3.63;;;11.30;93.90;;;;;;5072019;28;20039;-82
2022/04/11 09:34:19;;;;;;;9.43;4.25;;;11.40;92.60;;;;;;5059347;28;20043;-82
2022/04/11 09:36:45;;;;;;;9.35;4.78;;;11.50;91.50;;;;;;5069707;28;20439;-82
2022/04/11 09:39:11;;;;;;;12.98;4.88;;;11.70;91.80;;;;;;5086713;28;20557;-83
2022/04/11 09:41:42;;;;;;;9.68;4.80;;;11.80;90.30;;;;;;5086476;28;20383;-83
2022/04/11 09:44:25;;;;;;;9.20;4.57;;;12.00;88.90;;;;;;5069373;28;20032;-83
2022/04/11 09:46:53;;;;;;;11.30;5.03;;;12.10;89.60;;;;;;5063765;28;20375;-83
2022/04/11 09:49:18;;;;;;;9.43;5.10;;;12.30;86.80;;;;;;5073062;28;20044;-83
2022/04/11 09:52:03;;;;;;;11.35;4.93;;;12.30;83.40;;;;;;5074023;28;20043;-83
2022/04/11 09:54:30;;;;;;;10.50;5.85;;;12.50;84.40;;;;;;5056448;28;20041;-83
2022/04/11 09:56:58;;;;;;;12.68;5.95;;;12.60;81.60;;;;;;5072880;28;20036;-84
2022/04/11 09:59:24;;;;;;;10.88;5.63;;;12.70;78.70;;;;;;5056047;28;20512;-83
2022/04/11 10:01:52;;;;;;;10.27;5.57;;;12.80;77.40;;;;;;5056160;28;20051;-83
2022/04/11 10:04:21;;;;;;;11.07;6.05;;;12.90;75.10;;;;;;5056059;28;20040;-83
2022/04/11 10:06:47;;;;;;;12.05;6.25;;;13.00;73.70;;;;;;5072552;28;20044;-83
2022/04/11 10:09:14;;;;;;;10.27;5.63;;;13.00;72.90;;;;;;5056113;28;20037;-83
2022/04/11 10:11:42;;;;;;;10.52;5.75;;;13.20;71.80;;;;;;5072344;28;20402;-83
2022/04/11 10:14:11;;;;;;;11.07;5.70;;;13.30;70.80;;;;;;5056093;28;20037;-83
2022/04/11 10:16:44;;;;;;;10.82;6.25;;;13.50;71.20;;;;;;5072332;28;20044;-83
2022/04/11 10:19:11;;;;;;;12.68;6.05;;;13.50;70.10;;;;;;5055860;28;20050;-83
2022/04/11 10:21:42;;;;;;;9.55;5.30;;;13.60;72.10;;;;;;5072020;28;20495;-83
2022/04/11 10:24:08;;;;;;;11.43;5.57;;;13.80;72.90;;;;;;5055600;28;20044;-83
2022/04/11 10:26:53;;;;;;;10.60;5.68;;;14.00;71.40;;;;;;5061787;28;20036;-83
2022/04/11 10:29:38;;;;;;;12.63;6.28;;;14.20;68.30;;;;;;5056329;28;20049;-84
2022/04/11 10:32:18;;;;;;;11.63;6.32;;;14.30;67.10;;;;;;5052148;28;20513;-84
2022/04/11 10:34:49;;;;;;;11.32;6.20;;;14.40;66.80;;;;;;5051976;28;20040;-84
2022/04/11 10:37:18;;;;;;;11.73;6.82;;;14.60;65.50;;;;;;5035963;28;20063;-83
2022/04/11 10:39:45;;;;;;;13.60;6.40;;;14.60;63.80;;;;;;5035093;28;20044;-83
2022/04/11 10:42:22;;;;;;;11.43;6.30;;;14.70;64.10;;;;;;5052055;28;20049;-84
2022/04/11 10:44:50;;;;;;;11.20;6.32;;;14.80;61.80;;;;;;5051073;28;20063;-84
2022/04/11 10:47:15;;;;;;;11.88;6.43;;;15.00;62.40;;;;;;5035692;28;20047;-84
2022/04/11 10:49:53;;;;;;;10.75;6.22;;;15.10;63.80;;;;;;5051820;28;20127;-84
2022/04/11 10:52:33;;;;;;;11.85;6.40;;;15.20;61.30;;;;;;5035053;28;20037;-84
2022/04/11 10:55:11;;;;;;;11.50;6.07;;;15.30;59.60;;;;;;5051850;28;20498;-84
2022/04/11 10:57:42;;;;;;;10.73;6.13;;;15.40;60.80;;;;;;5045165;28;20556;-83
2022/04/11 11:00:15;;;;;;;11.30;6.50;;;15.50;59.30;;;;;;5054451;28;20037;-84
2022/04/11 11:02:50;;;;;;;12.05;6.68;;;15.50;59.70;;;;;;5071766;28;20037;-84
2022/04/11 11:05:40;;;;;;;12.18;6.32;;;15.60;59.70;;;;;;5071699;28;20059;-85
2022/04/11 11:10:59;;;;;;;11.07;6.15;;;15.70;58.90;;;;;;5069211;28;20049;-84
2022/04/11 11:13:35;;;;;;;12.65;6.35;;;15.80;58.30;;;;;;5054678;28;20044;-84
2022/04/11 11:16:07;;;;;;;10.82;6.20;;;15.80;56.90;;;;;;5054516;28;20036;-84
2022/04/11 11:18:48;;;;;;;10.93;6.18;;;16.00;58.30;;;;;;5055218;28;20398;-84
2022/04/11 11:21:32;;;;;;;11.57;6.35;;;16.10;57.30;;;;;;5054100;28;20490;-84
2022/04/11 11:24:08;;;;;;;11.70;6.50;;;16.20;57.80;;;;;;5071226;28;20037;-84
2022/04/11 11:26:54;;;;;;;13.80;7.07;;;16.40;56.30;;;;;;5054483;28;20127;-84
2022/04/11 11:29:21;;;;;;;11.73;7.05;;;16.30;53.70;;;;;;5054738;28;20036;-84
2022/04/11 11:31:49;;;;;;;11.55;7.18;;;16.30;55.30;;;;;;5070716;28;20047;-84
2022/04/11 11:34:16;;;;;;;9.85;6.15;;;16.40;54.80;;;;;;5054382;28;20123;-83
2022/04/11 11:36:43;;;;;;;11.15;6.80;;;16.50;54.40;;;;;;5070663;28;20090;-83
2022/04/11 11:39:19;;;;;;;12.88;7.10;;;16.70;54.70;;;;;;5054396;28;20115;-83
2022/04/11 11:41:45;;;;;;;10.20;6.95;;;16.90;54.10;;;;;;5070752;28;20067;-83
2022/04/11 11:44:11;;;;;;;11.55;7.57;;;17.00;52.20;;;;;;5054157;28;20071;-83
2022/04/11 11:46:46;;;;;;;12.48;8.00;;;17.10;53.40;;;;;;5054318;28;20040;-83
2022/04/11 11:49:12;;;;;;;11.93;7.25;;;17.20;52.60;;;;;;5070556;28;20052;-83
2022/04/11 11:51:37;;;;;;;11.55;7.30;;;17.30;52.00;;;;;;5069768;28;20051;-83
2022/04/11 11:54:03;;;;;;;12.68;7.88;;;17.30;52.40;;;;;;5054152;28;20101;-84
2022/04/11 11:56:41;;;;;;;12.50;7.22;;;17.40;52.00;;;;;;5070566;28;20044;-83
2022/04/11 11:59:06;;;;;;;12.70;7.70;;;17.50;52.90;;;;;;5071048;28;20556;-84
2022/04/11 12:01:32;;;;;;;13.77;7.85;;;17.60;51.00;;;;;;5053737;28;20482;-84
2022/04/11 12:06:42;;;;;;;11.90;7.28;;;17.70;48.90;;;;;;5070097;28;20051;-83
2022/04/11 12:09:08;;;;;;;10.95;7.35;;;17.70;50.80;;;;;;5045015;28;20036;-83
2022/04/11 12:11:34;;;;;;;10.88;6.95;;;17.80;49.30;;;;;;5059989;28;20040;-83
2022/04/11 12:14:08;;;;;;;11.80;7.15;;;17.90;48.80;;;;;;5065113;28;20029;-83
2022/04/11 12:16:36;;;;;;;12.30;7.40;;;18.10;48.80;;;;;;5042892;28;20402;-83
2022/04/11 12:19:04;;;;;;;13.38;7.80;;;18.10;47.60;;;;;;5042365;28;20666;-83
2022/04/11 12:21:39;;;;;;;12.40;7.15;;;18.20;47.30;;;;;;5041412;28;20029;-83
2022/04/11 12:24:06;;;;;;;11.60;6.82;;;18.30;47.50;;;;;;5063660;28;20044;-83
2022/04/11 12:26:40;;;;;;;10.88;7.22;;;18.40;47.60;;;;;;5056400;28;20037;-83
2022/04/11 12:29:11;;;;;;;11.52;6.97;;;18.50;46.70;;;;;;5060922;28;20128;-83
2022/04/11 12:31:38;;;;;;;11.98;6.78;;;18.60;47.60;;;;;;5042806;28;20044;-83
2022/04/11 12:34:11;;;;;;;10.25;6.38;;;18.90;48.60;;;;;;5042786;28;20115;-83
2022/04/11 12:36:40;;;;;;;9.75;6.18;;;19.10;46.10;;;;;;5043483;28;20041;-89
2022/04/11 12:39:14;;;;;;;10.15;6.32;;;19.30;46.60;;;;;;5048878;28;20400;-89
2022/04/11 12:41:40;;;;;;;12.40;7.78;;;19.50;47.20;;;;;;5048140;28;20040;-89
2022/04/11 12:44:11;;;;;;;11.65;7.15;;;19.60;45.60;;;;;;5049788;28;20041;-90
2022/04/11 12:46:56;;;;;;;13.68;7.82;;;19.80;45.60;;;;;;5049780;28;20041;-90
2022/04/11 12:49:22;;;;;;;11.43;7.35;;;20.00;44.60;;;;;;5050013;28;20044;-90
2022/04/11 12:52:01;;;;;;;10.65;6.93;;;20.10;45.20;;;;;;5049399;28;20048;-90
2022/04/11 12:54:42;;;;;;;11.52;6.75;;;20.30;43.80;;;;;;5066971;28;20041;-91
2022/04/11 12:57:09;;;;;;;11.27;6.78;;;20.50;44.10;;;;;;5050055;28;20132;-90